Terminal Aerodrome Forecast
Issued by NWS Albuquerque, NM

Home | Current Version | Previous Version | Text Only | Print | Product List | Glossary On
Versions: 1 2 3 4 5 6 7 8 9 10 11 12 13 14 15 16 17 18 19 20 21 22 23 24 25 26
000
FTUS45 KABQ 301700
TAFABQ
TAF
KABQ 301735Z 3018/3118 28006KT P6SM FEW060
     FM302300 31006KT P6SM SCT070 BKN200
     FM310200 10020G32KT P6SM VCTS BKN080CB
     FM310500 09022G34KT P6SM VCSH OVC060
     FM311000 09014KT P6SM FEW050 BKN080
     FM311400 10009KT P6SM BKN060=

USA.gov is the U.S. government's official web portal to all federal, state and local government web resources and services.